createdAt,value
2022-11-23T00:01:37.523Z,10.29
2022-11-23T00:04:06.670Z,10.32
2022-11-23T00:06:33.685Z,10.08
2022-11-23T00:09:00.334Z,10.55
2022-11-23T00:11:27.429Z,10.61
2022-11-23T00:13:54.735Z,10.44
2022-11-23T00:16:23.856Z,10.36
2022-11-23T00:18:53.262Z,10.29
2022-11-23T00:21:21.238Z,10.22
2022-11-23T00:23:48.475Z,10.12
2022-11-23T00:26:16.273Z,9.86
2022-11-23T00:28:43.052Z,10.66
2022-11-23T00:31:11.393Z,11.07
2022-11-23T00:33:38.259Z,10.40
2022-11-23T00:36:11.512Z,10.31
2022-11-23T00:38:38.715Z,10.10
2022-11-23T00:41:08.732Z,10.57
2022-11-23T00:43:37.088Z,10.20
2022-11-23T00:46:16.784Z,10.54
2022-11-23T00:48:44.312Z,10.53
2022-11-23T00:51:13.135Z,10.59
2022-11-23T00:53:39.854Z,10.50
2022-11-23T00:56:06.560Z,10.31
2022-11-23T00:58:33.264Z,10.31
2022-11-23T01:01:21.093Z,10.33
2022-11-23T01:03:49.820Z,10.51
2022-11-23T01:06:18.952Z,10.33
2022-11-23T01:08:56.399Z,10.81
2022-11-23T01:11:24.109Z,10.37
2022-11-23T01:13:50.812Z,9.91
2022-11-23T01:16:29.796Z,10.25
2022-11-23T01:19:05.731Z,10.34
2022-11-23T01:21:33.374Z,10.43
2022-11-23T01:23:59.952Z,10.40
2022-11-23T01:26:26.434Z,10.47
2022-11-23T01:28:52.856Z,10.71
2022-11-23T01:31:21.872Z,10.58
2022-11-23T01:33:48.575Z,10.65
2022-11-23T01:36:19.954Z,10.64
2022-11-23T01:38:47.809Z,10.68
2022-11-23T01:41:17.246Z,10.16
2022-11-23T01:43:43.831Z,10.59
2022-11-23T01:46:11.892Z,10.80
2022-11-23T01:48:38.854Z,10.66
2022-11-23T01:51:08.683Z,10.36
2022-11-23T01:53:36.201Z,10.68
2022-11-23T01:56:05.227Z,10.78
2022-11-23T01:58:34.980Z,10.78
2022-11-23T02:01:01.588Z,10.63
2022-11-23T02:03:32.532Z,10.28
2022-11-23T02:06:01.823Z,10.92
2022-11-23T02:08:29.215Z,10.56
2022-11-23T02:10:57.808Z,10.52
2022-11-23T02:13:25.677Z,10.47
2022-11-23T02:15:52.690Z,10.50
2022-11-23T02:18:40.295Z,9.93
2022-11-23T02:21:06.906Z,10.04
2022-11-23T02:23:51.233Z,9.70
2022-11-23T02:26:26.389Z,9.97
2022-11-23T02:28:58.262Z,9.87
2022-11-23T02:31:24.796Z,9.68
2022-11-23T02:33:51.285Z,9.80
2022-11-23T02:36:41.163Z,9.75
2022-11-23T02:39:16.465Z,10.05
2022-11-23T02:41:45.012Z,10.04
2022-11-23T02:44:21.339Z,9.77
2022-11-23T02:46:47.877Z,9.61
2022-11-23T02:49:14.541Z,10.17
2022-11-23T02:51:40.988Z,10.14
2022-11-23T02:54:07.542Z,10.01
2022-11-23T02:56:33.992Z,9.80
2022-11-23T02:59:00.486Z,9.84
2022-11-23T03:01:27.594Z,9.93
2022-11-23T03:03:54.585Z,9.94
2022-11-23T03:06:21.074Z,10.04
2022-11-23T03:08:47.530Z,10.27
2022-11-23T03:11:14.029Z,9.99
2022-11-23T03:13:40.479Z,9.67
2022-11-23T03:16:06.976Z,10.00
2022-11-23T03:18:33.426Z,10.19
2022-11-23T03:21:04.000Z,10.27
2022-11-23T03:23:30.556Z,10.03
2022-11-23T03:25:58.087Z,10.17
2022-11-23T03:28:24.800Z,10.43
2022-11-23T03:30:51.460Z,10.10
2022-11-23T03:33:18.746Z,10.41
2022-11-23T03:35:45.268Z,10.33
2022-11-23T03:38:12.572Z,10.31
2022-11-23T03:40:39.142Z,10.34
2022-11-23T03:43:06.123Z,10.49
2022-11-23T03:45:32.581Z,10.82
2022-11-23T03:47:59.385Z,10.58
2022-11-23T03:50:25.919Z,10.44
2022-11-23T03:52:52.368Z,10.24
2022-11-23T03:55:18.798Z,10.52
2022-11-23T03:57:47.972Z,10.43
2022-11-23T04:00:15.321Z,10.77
2022-11-23T04:02:42.656Z,10.53
2022-11-23T04:05:09.597Z,10.63
2022-11-23T04:07:36.112Z,10.50
2022-11-23T04:10:03.912Z,10.58
2022-11-23T04:12:30.418Z,10.26
2022-11-23T04:14:56.834Z,9.61
2022-11-23T04:17:23.253Z,10.03
2022-11-23T04:19:49.791Z,9.83
2022-11-23T04:22:16.276Z,9.83
2022-11-23T04:24:42.732Z,9.85
2022-11-23T04:27:09.156Z,10.06
2022-11-23T04:29:35.645Z,10.48
2022-11-23T04:32:02.115Z,9.84
2022-11-23T04:34:28.561Z,10.48
2022-11-23T04:36:54.983Z,9.94
2022-11-23T04:39:21.483Z,9.49
2022-11-23T04:41:47.938Z,9.61
2022-11-23T04:44:14.398Z,10.09
2022-11-23T04:46:40.873Z,9.73
2022-11-23T04:49:09.308Z,10.19
2022-11-23T04:51:35.813Z,9.84
2022-11-23T04:54:02.651Z,10.00
2022-11-23T04:56:29.216Z,9.92
2022-11-23T04:58:55.761Z,9.69
2022-11-23T05:01:22.283Z,9.86
2022-11-23T05:03:48.826Z,10.10
2022-11-23T05:06:15.338Z,9.74
2022-11-23T05:08:42.915Z,9.85
2022-11-23T05:11:09.740Z,9.48
2022-11-23T05:13:36.294Z,10.12
2022-11-23T05:16:03.113Z,9.73
2022-11-23T05:18:29.613Z,9.95
2022-11-23T05:20:56.073Z,10.09
2022-11-23T05:23:22.754Z,10.01
2022-11-23T05:25:49.253Z,9.83
2022-11-23T05:28:39.241Z,10.04
2022-11-23T05:31:05.319Z,10.27
2022-11-23T05:33:31.791Z,9.85
2022-11-23T05:35:58.297Z,9.59
2022-11-23T05:38:25.126Z,10.03
2022-11-23T05:40:51.590Z,9.87
2022-11-23T05:43:18.340Z,9.81
2022-11-23T05:45:44.796Z,10.30
2022-11-23T05:48:11.384Z,9.93
2022-11-23T05:50:37.835Z,10.41
2022-11-23T05:53:04.428Z,9.67
2022-11-23T05:55:31.580Z,10.15
2022-11-23T05:57:58.026Z,9.64
2022-11-23T06:00:24.518Z,10.22
2022-11-23T06:02:51.053Z,10.33
2022-11-23T06:05:17.595Z,10.34
2022-11-23T06:07:44.230Z,10.22
2022-11-23T06:10:11.520Z,10.15
2022-11-23T06:12:38.049Z,9.63
2022-11-23T06:15:05.001Z,9.38
2022-11-23T06:17:31.514Z,9.98
2022-11-23T06:19:58.044Z,10.06
2022-11-23T06:22:24.520Z,9.70
2022-11-23T06:24:51.032Z,9.82
2022-11-23T06:27:18.404Z,9.91
2022-11-23T06:29:45.093Z,9.75
2022-11-23T06:32:11.619Z,9.94
2022-11-23T06:34:38.131Z,10.04
2022-11-23T06:37:04.629Z,9.49
2022-11-23T06:39:31.664Z,9.72
2022-11-23T06:42:10.945Z,9.48
2022-11-23T06:44:44.921Z,10.14
2022-11-23T06:47:15.440Z,9.98
2022-11-23T06:49:43.776Z,10.05
2022-11-23T06:52:10.241Z,9.69
2022-11-23T06:54:36.729Z,9.99
2022-11-23T06:57:03.190Z,10.09
2022-11-23T06:59:29.777Z,9.78
2022-11-23T07:01:56.508Z,10.05
2022-11-23T07:04:23.039Z,10.29
2022-11-23T07:06:49.485Z,10.39
2022-11-23T07:09:15.952Z,10.31
2022-11-23T07:11:42.586Z,10.47
2022-11-23T07:14:09.039Z,10.21
2022-11-23T07:16:35.546Z,10.12
2022-11-23T07:19:02.198Z,10.04
2022-11-23T07:21:29.025Z,10.24
2022-11-23T07:23:55.475Z,10.61
2022-11-23T07:26:21.933Z,10.44
2022-11-23T07:28:48.445Z,10.15
2022-11-23T07:31:16.155Z,10.53
2022-11-23T07:33:46.557Z,10.10
2022-11-23T07:36:13.583Z,11.20
2022-11-23T07:38:40.546Z,10.90
2022-11-23T07:41:07.060Z,10.76
2022-11-23T07:43:33.550Z,10.94
2022-11-23T07:45:59.959Z,11.33
2022-11-23T07:48:28.102Z,11.15
2022-11-23T07:50:56.228Z,10.95
2022-11-23T07:53:23.807Z,11.52
2022-11-23T07:55:50.322Z,11.66
2022-11-23T07:58:16.767Z,11.35
2022-11-23T08:00:43.408Z,10.86
2022-11-23T08:03:29.680Z,11.27
2022-11-23T08:05:59.218Z,11.03
2022-11-23T08:08:25.973Z,11.27
2022-11-23T08:10:54.196Z,11.54
2022-11-23T08:13:21.690Z,11.96
2022-11-23T08:15:53.672Z,11.68
2022-11-23T08:18:20.726Z,11.37
2022-11-23T08:20:47.192Z,11.75
2022-11-23T08:23:13.642Z,11.56
2022-11-23T08:25:40.142Z,11.57
2022-11-23T08:28:06.624Z,11.65
2022-11-23T08:30:34.095Z,11.66
2022-11-23T08:33:07.758Z,11.64
2022-11-23T08:35:36.473Z,12.28
2022-11-23T08:38:07.162Z,11.95
2022-11-23T08:40:34.447Z,12.50
2022-11-23T08:43:03.469Z,12.82
2022-11-23T08:45:29.968Z,12.00
2022-11-23T08:48:01.083Z,12.60
2022-11-23T08:50:29.230Z,13.65
2022-11-23T08:52:57.282Z,13.03
2022-11-23T08:55:25.124Z,12.13
2022-11-23T08:57:55.349Z,13.46
2022-11-23T09:00:22.014Z,13.02
2022-11-23T09:02:48.542Z,13.68
2022-11-23T09:05:15.274Z,13.85
2022-11-23T09:07:41.797Z,13.27
2022-11-23T09:10:17.703Z,13.55
2022-11-23T09:12:45.055Z,14.79
2022-11-23T09:15:11.669Z,17.26
2022-11-23T09:17:38.247Z,18.77
2022-11-23T09:20:05.330Z,20.26
2022-11-23T09:22:31.989Z,22.68
2022-11-23T09:24:58.604Z,23.56
2022-11-23T09:27:25.128Z,20.13
2022-11-23T09:29:51.582Z,17.80
2022-11-23T09:32:18.052Z,17.76
2022-11-23T09:34:45.384Z,19.37
2022-11-23T09:37:13.081Z,20.15
2022-11-23T09:39:39.735Z,22.76
2022-11-23T09:42:24.884Z,24.31
2022-11-23T09:45:16.131Z,25.19
2022-11-23T09:47:48.633Z,24.48
2022-11-23T09:50:24.846Z,24.10
2022-11-23T09:52:51.665Z,27.55
2022-11-23T09:55:41.309Z,28.21
2022-11-23T09:58:13.481Z,26.57
2022-11-23T10:01:03.229Z,28.26
2022-11-23T10:03:36.998Z,24.42
2022-11-23T10:06:29.088Z,25.02
2022-11-23T10:09:20.026Z,24.57
2022-11-23T10:11:58.421Z,25.42
2022-11-23T10:14:36.948Z,26.99
2022-11-23T10:17:28.546Z,27.71
2022-11-23T10:20:32.662Z,25.40
2022-11-23T10:23:01.072Z,28.09
2022-11-23T10:25:42.903Z,26.39
2022-11-23T10:28:15.542Z,26.62
2022-11-23T10:30:42.592Z,23.77
2022-11-23T10:33:31.981Z,24.93
2022-11-23T10:35:58.673Z,22.85
2022-11-23T10:38:26.937Z,23.62
2022-11-23T10:41:04.885Z,22.98
2022-11-23T10:43:43.583Z,25.25
2022-11-23T10:46:25.461Z,24.56
2022-11-23T10:48:53.026Z,22.99
2022-11-23T10:51:21.993Z,22.14
2022-11-23T10:54:05.275Z,18.77
2022-11-23T10:56:33.530Z,18.89
2022-11-23T10:59:00.458Z,18.43
2022-11-23T11:01:29.538Z,18.10
2022-11-23T11:04:02.809Z,21.35
2022-11-23T11:06:33.583Z,20.32
2022-11-23T11:09:09.538Z,20.82
2022-11-23T11:11:40.225Z,21.47
2022-11-23T11:14:24.873Z,23.08
2022-11-23T11:16:52.619Z,23.22
2022-11-23T11:19:32.054Z,21.61
2022-11-23T11:22:00.127Z,22.12
2022-11-23T11:24:33.356Z,24.60
2022-11-23T11:27:02.434Z,24.09
2022-11-23T11:29:40.239Z,23.98
2022-11-23T11:32:15.848Z,23.23
2022-11-23T11:35:19.124Z,23.87
2022-11-23T11:37:49.411Z,24.25
2022-11-23T11:40:39.141Z,24.30
2022-11-23T11:43:39.119Z,25.28
2022-11-23T11:46:28.430Z,27.55
2022-11-23T11:49:04.174Z,27.48
2022-11-23T11:51:37.111Z,28.29
2022-11-23T11:54:15.708Z,27.27
2022-11-23T11:56:45.231Z,27.17
2022-11-23T11:59:30.843Z,23.89
2022-11-23T12:02:14.730Z,23.53
2022-11-23T12:05:12.864Z,24.83
2022-11-23T12:08:25.565Z,24.07
2022-11-23T12:10:54.348Z,24.43
2022-11-23T12:13:29.857Z,24.81
2022-11-23T12:16:02.561Z,24.13
2022-11-23T12:18:47.768Z,19.07
2022-11-23T12:21:24.055Z,19.32
2022-11-23T12:24:05.830Z,17.06
2022-11-23T12:26:50.536Z,16.62
2022-11-23T12:29:35.433Z,15.89
2022-11-23T12:32:19.985Z,15.37
2022-11-23T12:35:20.199Z,15.48
2022-11-23T12:37:57.096Z,13.80
2022-11-23T12:40:26.751Z,13.94
2022-11-23T12:43:09.401Z,13.58
2022-11-23T12:45:45.066Z,13.53
2022-11-23T12:48:11.535Z,13.13
2022-11-23T12:50:47.375Z,12.98
2022-11-23T12:53:29.383Z,12.94
2022-11-23T12:56:03.688Z,12.76
2022-11-23T12:58:31.739Z,13.02
2022-11-23T13:01:11.972Z,13.14
2022-11-23T13:03:55.963Z,13.43
2022-11-23T13:07:20.270Z,13.06
2022-11-23T13:09:35.444Z,13.05
2022-11-23T13:12:36.916Z,13.34
2022-11-23T13:15:31.459Z,13.29
2022-11-23T13:18:11.171Z,12.68
2022-11-23T13:20:46.793Z,12.95
2022-11-23T13:23:13.371Z,12.37
2022-11-23T13:25:39.809Z,12.62
2022-11-23T13:28:29.451Z,12.30
2022-11-23T13:31:20.875Z,12.11
2022-11-23T13:33:49.212Z,11.89
2022-11-23T13:36:56.585Z,12.58
2022-11-23T13:39:43.696Z,12.25
2022-11-23T13:42:10.864Z,12.43
2022-11-23T13:44:37.746Z,11.93
2022-11-23T13:47:10.414Z,12.08
2022-11-23T13:49:42.211Z,12.29
2022-11-23T13:52:20.881Z,12.26
2022-11-23T13:55:10.084Z,12.88
2022-11-23T13:57:38.985Z,12.45
2022-11-23T14:01:03.116Z,12.52
2022-11-23T14:03:50.205Z,12.07
2022-11-23T14:06:38.989Z,12.13
2022-11-23T14:09:30.164Z,11.81
2022-11-23T14:12:05.516Z,11.82
2022-11-23T14:14:53.094Z,11.70
2022-11-23T14:17:38.391Z,11.55
2022-11-23T14:20:31.975Z,11.77
2022-11-23T14:23:11.877Z,11.89
2022-11-23T14:26:21.978Z,11.71
2022-11-23T14:29:20.933Z,12.03
2022-11-23T14:32:15.208Z,12.07
2022-11-23T14:34:54.828Z,12.16
2022-11-23T14:37:48.736Z,11.66
2022-11-23T14:40:48.229Z,11.62
2022-11-23T14:43:19.560Z,11.49
2022-11-23T14:45:48.950Z,11.77
2022-11-23T14:48:30.102Z,12.13
2022-11-23T14:51:05.321Z,12.11
2022-11-23T14:53:54.093Z,11.88
2022-11-23T14:56:38.634Z,11.99
2022-11-23T14:59:10.477Z,12.01
2022-11-23T15:01:37.463Z,12.07
2022-11-23T15:04:18.446Z,11.69
2022-11-23T15:06:47.717Z,11.91
2022-11-23T15:09:37.064Z,11.66
2022-11-23T15:12:28.049Z,11.75
2022-11-23T15:14:57.362Z,12.08
2022-11-23T15:17:24.469Z,11.60
2022-11-23T15:20:01.429Z,11.84
2022-11-23T15:22:29.069Z,11.61
2022-11-23T15:25:06.507Z,11.90
2022-11-23T15:27:32.986Z,11.71
2022-11-23T15:30:00.254Z,11.64
2022-11-23T15:32:32.173Z,11.54
2022-11-23T15:35:03.119Z,12.07
2022-11-23T15:37:29.658Z,11.34
2022-11-23T15:39:56.965Z,11.54
2022-11-23T15:42:24.946Z,11.08
2022-11-23T15:44:53.501Z,11.29
2022-11-23T15:47:27.057Z,11.47
2022-11-23T15:50:08.201Z,11.75
2022-11-23T15:52:36.730Z,11.11
2022-11-23T15:55:09.675Z,11.59
2022-11-23T15:57:37.252Z,11.05
2022-11-23T16:00:05.493Z,11.43
2022-11-23T16:02:32.283Z,11.46
2022-11-23T16:05:11.141Z,11.88
2022-11-23T16:07:59.709Z,11.71
2022-11-23T16:10:28.591Z,11.60
2022-11-23T16:13:03.169Z,11.48
2022-11-23T16:15:38.953Z,12.00
2022-11-23T16:18:18.916Z,11.98
2022-11-23T16:20:51.624Z,12.33
2022-11-23T16:23:40.758Z,12.04
2022-11-23T16:26:07.771Z,11.63
2022-11-23T16:28:37.272Z,12.18
2022-11-23T16:31:04.147Z,11.95
2022-11-23T16:33:30.918Z,11.81
2022-11-23T16:35:57.471Z,12.03
2022-11-23T16:38:24.482Z,12.11
2022-11-23T16:40:51.422Z,11.59
2022-11-23T16:43:18.353Z,10.79
2022-11-23T16:45:47.117Z,11.17
2022-11-23T16:48:25.803Z,10.42
2022-11-23T16:50:53.882Z,10.63
2022-11-23T16:53:20.622Z,9.91
2022-11-23T16:55:52.513Z,10.58
2022-11-23T16:58:19.366Z,10.25
2022-11-23T17:00:46.071Z,10.57
2022-11-23T17:03:14.437Z,10.59
2022-11-23T17:05:41.047Z,10.51
2022-11-23T17:08:07.767Z,10.56
2022-11-23T17:10:37.169Z,10.61
2022-11-23T17:13:04.323Z,10.91
2022-11-23T17:15:32.149Z,10.54
2022-11-23T17:17:59.115Z,11.00
2022-11-23T17:20:25.639Z,11.05
2022-11-23T17:22:52.162Z,10.56
2022-11-23T17:25:19.157Z,10.99
2022-11-23T17:27:48.507Z,11.04
2022-11-23T17:30:22.154Z,10.67
2022-11-23T17:32:49.557Z,10.84
2022-11-23T17:35:16.992Z,10.92
2022-11-23T17:37:45.027Z,10.83
2022-11-23T17:40:15.370Z,10.53
2022-11-23T17:42:41.842Z,10.51
2022-11-23T17:45:08.747Z,10.75
2022-11-23T17:47:35.220Z,10.70
2022-11-23T17:50:03.100Z,11.08
2022-11-23T17:52:29.611Z,11.30
2022-11-23T17:54:56.182Z,11.40
2022-11-23T17:57:24.505Z,11.34
2022-11-23T17:59:51.430Z,10.86
2022-11-23T18:02:19.328Z,10.91
2022-11-23T18:04:46.698Z,10.68
2022-11-23T18:07:14.724Z,11.16
2022-11-23T18:09:42.381Z,10.75
2022-11-23T18:12:09.721Z,10.15
2022-11-23T18:14:36.304Z,10.44
2022-11-23T18:17:02.830Z,10.09
2022-11-23T18:19:29.330Z,10.09
2022-11-23T18:21:55.825Z,9.60
2022-11-23T18:24:22.386Z,9.79
2022-11-23T18:26:48.921Z,9.91
2022-11-23T18:29:17.271Z,9.97
2022-11-23T18:31:44.515Z,9.74
2022-11-23T18:34:11.048Z,9.30
2022-11-23T18:36:37.630Z,9.28
2022-11-23T18:39:04.160Z,9.32
2022-11-23T18:41:30.625Z,9.66
2022-11-23T18:43:57.211Z,9.60
2022-11-23T18:46:24.145Z,9.46
2022-11-23T18:48:51.336Z,9.36
2022-11-23T18:51:18.213Z,9.31
2022-11-23T18:53:47.368Z,9.74
2022-11-23T18:56:13.951Z,9.07
2022-11-23T18:58:41.986Z,9.30
2022-11-23T19:01:12.187Z,9.38
2022-11-23T19:03:40.880Z,9.90
2022-11-23T19:06:08.126Z,9.52
2022-11-23T19:08:40.333Z,9.07
2022-11-23T19:11:09.350Z,9.43
2022-11-23T19:13:37.901Z,9.65
2022-11-23T19:16:20.951Z,9.60
2022-11-23T19:18:49.157Z,9.54
2022-11-23T19:21:19.831Z,9.73
2022-11-23T19:23:51.814Z,9.56
2022-11-23T19:26:18.890Z,9.63
2022-11-23T19:28:45.945Z,9.91
2022-11-23T19:31:19.456Z,10.24
2022-11-23T19:33:47.259Z,10.54
2022-11-23T19:36:15.895Z,10.09
2022-11-23T19:38:42.831Z,10.57
2022-11-23T19:41:09.447Z,10.37
2022-11-23T19:43:36.101Z,10.13
2022-11-23T19:46:04.543Z,10.16
2022-11-23T19:48:32.755Z,10.50
2022-11-23T19:51:05.058Z,10.10
2022-11-23T19:53:34.001Z,10.03
2022-11-23T19:56:05.297Z,10.35
2022-11-23T19:58:32.704Z,9.77
2022-11-23T20:01:04.415Z,9.53
2022-11-23T20:03:34.144Z,9.83
2022-11-23T20:06:02.774Z,9.78
2022-11-23T20:08:29.445Z,9.98
2022-11-23T20:10:56.267Z,9.80
2022-11-23T20:13:23.264Z,9.51
2022-11-23T20:15:50.042Z,9.82
2022-11-23T20:18:17.303Z,9.69
2022-11-23T20:20:45.785Z,10.13
2022-11-23T20:23:16.255Z,10.14
2022-11-23T20:25:42.815Z,9.71
2022-11-23T20:28:13.815Z,10.22
2022-11-23T20:30:41.960Z,10.16
2022-11-23T20:33:09.385Z,10.05
2022-11-23T20:35:36.261Z,10.21
2022-11-23T20:38:03.232Z,10.17
2022-11-23T20:40:30.436Z,10.55
2022-11-23T20:42:58.006Z,10.60
2022-11-23T20:45:25.677Z,10.19
2022-11-23T20:47:54.501Z,10.66
2022-11-23T20:50:25.537Z,10.52
2022-11-23T20:52:53.237Z,10.30
2022-11-23T20:55:25.224Z,10.69
2022-11-23T20:57:52.475Z,10.41
2022-11-23T21:00:21.308Z,10.72
2022-11-23T21:02:52.338Z,10.19
2022-11-23T21:05:19.461Z,9.85
2022-11-23T21:07:46.916Z,10.26
2022-11-23T21:10:34.493Z,10.53
2022-11-23T21:13:20.104Z,10.91
2022-11-23T21:15:46.763Z,10.51
2022-11-23T21:18:13.424Z,10.54
2022-11-23T21:20:40.941Z,10.35
2022-11-23T21:23:07.475Z,10.28
2022-11-23T21:25:34.610Z,10.17
2022-11-23T21:28:03.179Z,9.83
2022-11-23T21:30:30.678Z,9.92
2022-11-23T21:32:57.511Z,10.15
2022-11-23T21:35:24.107Z,9.87
2022-11-23T21:37:50.743Z,9.75
2022-11-23T21:40:17.228Z,10.01
2022-11-23T21:42:44.724Z,10.34
2022-11-23T21:45:11.502Z,10.28
2022-11-23T21:47:37.980Z,10.06
2022-11-23T21:50:04.873Z,9.94
2022-11-23T21:52:31.488Z,9.91
2022-11-23T21:54:58.081Z,10.14
2022-11-23T21:57:24.504Z,10.54
2022-11-23T21:59:51.430Z,10.29
2022-11-23T22:02:18.000Z,10.30
2022-11-23T22:04:44.505Z,10.36
2022-11-23T22:07:11.044Z,10.85
2022-11-23T22:09:37.966Z,10.31
2022-11-23T22:12:04.639Z,10.26
2022-11-23T22:14:31.904Z,10.48
2022-11-23T22:16:58.617Z,10.54
2022-11-23T22:19:25.077Z,10.11
2022-11-23T22:21:51.648Z,10.11
2022-11-23T22:24:19.163Z,10.37
2022-11-23T22:26:46.083Z,9.78
2022-11-23T22:29:12.945Z,10.26
2022-11-23T22:31:39.598Z,10.06
2022-11-23T22:34:09.164Z,9.75
2022-11-23T22:36:35.681Z,9.88
2022-11-23T22:39:04.764Z,10.24
2022-11-23T22:41:36.866Z,10.11
2022-11-23T22:44:05.686Z,10.17
2022-11-23T22:46:32.208Z,10.04
2022-11-23T22:48:59.566Z,9.84
2022-11-23T22:51:27.876Z,10.51
2022-11-23T22:53:56.046Z,10.71
2022-11-23T22:56:23.052Z,10.88
2022-11-23T22:58:49.615Z,9.87
2022-11-23T23:01:18.267Z,10.52
2022-11-23T23:03:45.261Z,10.43
2022-11-23T23:06:23.446Z,10.49
2022-11-23T23:09:00.219Z,10.22
2022-11-23T23:11:29.950Z,10.17
2022-11-23T23:13:56.709Z,9.97
2022-11-23T23:16:23.828Z,10.18
2022-11-23T23:18:51.355Z,10.06
2022-11-23T23:21:20.008Z,9.85
2022-11-23T23:23:48.463Z,9.77
2022-11-23T23:26:16.551Z,10.03
2022-11-23T23:28:43.334Z,10.43
2022-11-23T23:31:14.784Z,10.23
2022-11-23T23:33:41.659Z,10.56
2022-11-23T23:36:11.619Z,10.52
2022-11-23T23:38:38.558Z,10.13
2022-11-23T23:41:06.100Z,10.56
2022-11-23T23:43:32.852Z,10.89
2022-11-23T23:46:04.768Z,10.61
2022-11-23T23:48:33.745Z,10.46
2022-11-23T23:51:07.122Z,10.63
2022-11-23T23:53:34.588Z,10.60
2022-11-23T23:56:03.591Z,10.71
2022-11-23T23:58:30.675Z,10.76
